sensor_id;sensor_type;location;lat;lon;timestamp;P1;durP1;ratioP1;P2;durP2;ratioP2
22034;SDS011;11181;51.002;4.356;2023-06-24T00:02:12;10.87;;;8.00;;
22034;SDS011;11181;51.002;4.356;2023-06-24T00:04:39;14.27;;;7.60;;
22034;SDS011;11181;51.002;4.356;2023-06-24T00:07:06;8.23;;;6.70;;
22034;SDS011;11181;51.002;4.356;2023-06-24T00:09:35;10.03;;;7.13;;
22034;SDS011;11181;51.002;4.356;2023-06-24T00:12:02;8.90;;;6.93;;
22034;SDS011;11181;51.002;4.356;2023-06-24T00:14:30;8.23;;;6.67;;
22034;SDS011;11181;51.002;4.356;2023-06-24T00:16:57;8.07;;;7.03;;
22034;SDS011;11181;51.002;4.356;2023-06-24T00:19:24;9.83;;;7.10;;
22034;SDS011;11181;51.002;4.356;2023-06-24T00:21:52;8.57;;;7.00;;
22034;SDS011;11181;51.002;4.356;2023-06-24T00:24:19;9.40;;;7.60;;
22034;SDS011;11181;51.002;4.356;2023-06-24T00:26:51;8.37;;;7.10;;
22034;SDS011;11181;51.002;4.356;2023-06-24T00:29:18;11.60;;;7.57;;
22034;SDS011;11181;51.002;4.356;2023-06-24T00:31:45;9.40;;;6.33;;
22034;SDS011;11181;51.002;4.356;2023-06-24T00:34:12;11.70;;;8.37;;
22034;SDS011;11181;51.002;4.356;2023-06-24T00:36:39;9.57;;;6.53;;
22034;SDS011;11181;51.002;4.356;2023-06-24T00:39:08;6.90;;;5.40;;
22034;SDS011;11181;51.002;4.356;2023-06-24T00:41:35;7.90;;;6.20;;
22034;SDS011;11181;51.002;4.356;2023-06-24T00:44:04;7.63;;;6.30;;
22034;SDS011;11181;51.002;4.356;2023-06-24T00:46:31;9.47;;;5.93;;
22034;SDS011;11181;51.002;4.356;2023-06-24T00:48:59;9.50;;;5.60;;
22034;SDS011;11181;51.002;4.356;2023-06-24T00:51:27;7.30;;;5.70;;
22034;SDS011;11181;51.002;4.356;2023-06-24T00:53:57;8.07;;;6.27;;
22034;SDS011;11181;51.002;4.356;2023-06-24T00:56:25;8.47;;;6.40;;
22034;SDS011;11181;51.002;4.356;2023-06-24T00:58:54;7.73;;;6.53;;
22034;SDS011;11181;51.002;4.356;2023-06-24T01:01:24;7.50;;;5.80;;
22034;SDS011;11181;51.002;4.356;2023-06-24T01:03:51;8.10;;;6.07;;
22034;SDS011;11181;51.002;4.356;2023-06-24T01:06:18;7.87;;;5.93;;
22034;SDS011;11181;51.002;4.356;2023-06-24T01:08:45;7.13;;;5.57;;
22034;SDS011;11181;51.002;4.356;2023-06-24T01:11:15;9.10;;;6.23;;
22034;SDS011;11181;51.002;4.356;2023-06-24T01:13:42;8.80;;;6.33;;
22034;SDS011;11181;51.002;4.356;2023-06-24T01:16:10;9.30;;;5.73;;
22034;SDS011;11181;51.002;4.356;2023-06-24T01:18:46;7.57;;;6.33;;
22034;SDS011;11181;51.002;4.356;2023-06-24T01:21:21;7.73;;;5.27;;
22034;SDS011;11181;51.002;4.356;2023-06-24T01:32:52;4.87;;;4.27;;
22034;SDS011;11181;51.002;4.356;2023-06-24T01:35:25;6.37;;;5.00;;
22034;SDS011;11181;51.002;4.356;2023-06-24T01:37:55;7.03;;;5.77;;
22034;SDS011;11181;51.002;4.356;2023-06-24T01:40:25;5.73;;;4.63;;
22034;SDS011;11181;51.002;4.356;2023-06-24T01:42:53;5.27;;;4.77;;
22034;SDS011;11181;51.002;4.356;2023-06-24T01:45:24;6.60;;;5.10;;
22034;SDS011;11181;51.002;4.356;2023-06-24T01:47:57;5.87;;;5.00;;
22034;SDS011;11181;51.002;4.356;2023-06-24T01:50:28;7.60;;;5.00;;
22034;SDS011;11181;51.002;4.356;2023-06-24T01:52:58;8.50;;;5.07;;
22034;SDS011;11181;51.002;4.356;2023-06-24T01:55:27;8.20;;;5.23;;
22034;SDS011;11181;51.002;4.356;2023-06-24T01:57:55;7.00;;;4.87;;
22034;SDS011;11181;51.002;4.356;2023-06-24T02:00:24;7.97;;;5.07;;
22034;SDS011;11181;51.002;4.356;2023-06-24T02:02:52;6.87;;;4.93;;
22034;SDS011;11181;51.002;4.356;2023-06-24T02:05:21;7.27;;;5.30;;
22034;SDS011;11181;51.002;4.356;2023-06-24T02:07:51;4.43;;;4.03;;
22034;SDS011;11181;51.002;4.356;2023-06-24T02:10:18;5.73;;;4.10;;
22034;SDS011;11181;51.002;4.356;2023-06-24T02:12:48;6.73;;;4.73;;
22034;SDS011;11181;51.002;4.356;2023-06-24T02:15:17;6.10;;;3.77;;
22034;SDS011;11181;51.002;4.356;2023-06-24T02:17:45;6.77;;;4.37;;
22034;SDS011;11181;51.002;4.356;2023-06-24T02:20:17;4.47;;;3.60;;
22034;SDS011;11181;51.002;4.356;2023-06-24T02:22:46;4.37;;;3.70;;
22034;SDS011;11181;51.002;4.356;2023-06-24T02:25:14;5.47;;;4.10;;
22034;SDS011;11181;51.002;4.356;2023-06-24T02:27:42;5.20;;;4.70;;
22034;SDS011;11181;51.002;4.356;2023-06-24T02:30:09;6.93;;;4.40;;
22034;SDS011;11181;51.002;4.356;2023-06-24T02:32:39;8.60;;;5.30;;
22034;SDS011;11181;51.002;4.356;2023-06-24T02:35:06;5.73;;;4.10;;
22034;SDS011;11181;51.002;4.356;2023-06-24T02:37:35;5.40;;;4.03;;
22034;SDS011;11181;51.002;4.356;2023-06-24T02:40:02;5.23;;;3.80;;
22034;SDS011;11181;51.002;4.356;2023-06-24T02:42:30;4.10;;;3.30;;
22034;SDS011;11181;51.002;4.356;2023-06-24T02:44:57;6.90;;;4.40;;
22034;SDS011;11181;51.002;4.356;2023-06-24T02:47:25;4.27;;;3.77;;
22034;SDS011;11181;51.002;4.356;2023-06-24T02:49:52;5.67;;;3.80;;
22034;SDS011;11181;51.002;4.356;2023-06-24T02:52:22;4.43;;;3.63;;
22034;SDS011;11181;51.002;4.356;2023-06-24T02:54:55;7.00;;;4.00;;
22034;SDS011;11181;51.002;4.356;2023-06-24T02:57:22;6.43;;;4.00;;
22034;SDS011;11181;51.002;4.356;2023-06-24T02:59:50;5.70;;;3.63;;
22034;SDS011;11181;51.002;4.356;2023-06-24T03:02:17;4.33;;;3.17;;
22034;SDS011;11181;51.002;4.356;2023-06-24T03:04:44;5.87;;;3.77;;
22034;SDS011;11181;51.002;4.356;2023-06-24T03:07:11;4.53;;;3.60;;
22034;SDS011;11181;51.002;4.356;2023-06-24T03:09:39;4.63;;;3.80;;
22034;SDS011;11181;51.002;4.356;2023-06-24T03:12:08;8.00;;;3.73;;
22034;SDS011;11181;51.002;4.356;2023-06-24T03:14:35;4.00;;;3.43;;
22034;SDS011;11181;51.002;4.356;2023-06-24T03:17:02;7.13;;;3.40;;
22034;SDS011;11181;51.002;4.356;2023-06-24T03:19:29;5.53;;;3.57;;
22034;SDS011;11181;51.002;4.356;2023-06-24T03:21:56;7.20;;;3.90;;
22034;SDS011;11181;51.002;4.356;2023-06-24T03:24:27;5.27;;;3.63;;
22034;SDS011;11181;51.002;4.356;2023-06-24T03:26:54;4.57;;;3.30;;
22034;SDS011;11181;51.002;4.356;2023-06-24T03:29:23;7.63;;;4.20;;
22034;SDS011;11181;51.002;4.356;2023-06-24T03:31:50;5.13;;;3.50;;
22034;SDS011;11181;51.002;4.356;2023-06-24T03:34:17;5.43;;;3.60;;
22034;SDS011;11181;51.002;4.356;2023-06-24T03:36:44;5.40;;;3.57;;
22034;SDS011;11181;51.002;4.356;2023-06-24T03:39:11;4.30;;;3.83;;
22034;SDS011;11181;51.002;4.356;2023-06-24T03:41:38;3.30;;;2.73;;
22034;SDS011;11181;51.002;4.356;2023-06-24T03:44:05;4.47;;;3.30;;
22034;SDS011;11181;51.002;4.356;2023-06-24T03:46:33;3.90;;;3.50;;
22034;SDS011;11181;51.002;4.356;2023-06-24T03:49:00;4.73;;;3.07;;
22034;SDS011;11181;51.002;4.356;2023-06-24T03:51:27;7.27;;;3.47;;
22034;SDS011;11181;51.002;4.356;2023-06-24T03:53:54;8.03;;;3.30;;
22034;SDS011;11181;51.002;4.356;2023-06-24T03:56:21;5.10;;;3.23;;
22034;SDS011;11181;51.002;4.356;2023-06-24T03:58:47;7.13;;;3.70;;
22034;SDS011;11181;51.002;4.356;2023-06-24T04:01:15;4.43;;;3.47;;
22034;SDS011;11181;51.002;4.356;2023-06-24T04:03:45;5.00;;;3.20;;
22034;SDS011;11181;51.002;4.356;2023-06-24T04:06:12;3.83;;;3.40;;
22034;SDS011;11181;51.002;4.356;2023-06-24T04:08:39;6.37;;;3.63;;
22034;SDS011;11181;51.002;4.356;2023-06-24T04:11:08;7.27;;;3.07;;
22034;SDS011;11181;51.002;4.356;2023-06-24T04:13:36;3.97;;;3.17;;
22034;SDS011;11181;51.002;4.356;2023-06-24T04:16:03;5.73;;;3.87;;
22034;SDS011;11181;51.002;4.356;2023-06-24T04:18:30;4.13;;;3.17;;
22034;SDS011;11181;51.002;4.356;2023-06-24T04:20:58;6.23;;;3.63;;
22034;SDS011;11181;51.002;4.356;2023-06-24T04:23:25;5.67;;;3.80;;
22034;SDS011;11181;51.002;4.356;2023-06-24T04:25:52;5.53;;;3.37;;
22034;SDS011;11181;51.002;4.356;2023-06-24T04:28:19;4.67;;;3.63;;
22034;SDS011;11181;51.002;4.356;2023-06-24T04:30:46;5.13;;;3.43;;
22034;SDS011;11181;51.002;4.356;2023-06-24T04:33:13;6.00;;;4.53;;
22034;SDS011;11181;51.002;4.356;2023-06-24T04:35:43;8.33;;;4.90;;
22034;SDS011;11181;51.002;4.356;2023-06-24T04:38:11;6.73;;;3.67;;
22034;SDS011;11181;51.002;4.356;2023-06-24T04:40:43;3.80;;;3.20;;
22034;SDS011;11181;51.002;4.356;2023-06-24T04:43:10;9.03;;;4.00;;
22034;SDS011;11181;51.002;4.356;2023-06-24T04:45:36;4.83;;;3.07;;
22034;SDS011;11181;51.002;4.356;2023-06-24T04:48:04;4.53;;;3.30;;
22034;SDS011;11181;51.002;4.356;2023-06-24T04:50:31;6.67;;;3.30;;
22034;SDS011;11181;51.002;4.356;2023-06-24T04:52:58;6.57;;;3.73;;
22034;SDS011;11181;51.002;4.356;2023-06-24T04:55:28;5.20;;;3.80;;
22034;SDS011;11181;51.002;4.356;2023-06-24T04:57:56;3.67;;;3.27;;
22034;SDS011;11181;51.002;4.356;2023-06-24T05:00:23;11.97;;;4.17;;
22034;SDS011;11181;51.002;4.356;2023-06-24T05:02:50;4.23;;;3.53;;
22034;SDS011;11181;51.002;4.356;2023-06-24T05:05:17;8.20;;;3.77;;
22034;SDS011;11181;51.002;4.356;2023-06-24T05:07:45;6.60;;;3.50;;
22034;SDS011;11181;51.002;4.356;2023-06-24T05:10:12;4.57;;;3.50;;
22034;SDS011;11181;51.002;4.356;2023-06-24T05:12:40;6.47;;;3.60;;
22034;SDS011;11181;51.002;4.356;2023-06-24T05:15:07;5.27;;;3.20;;
22034;SDS011;11181;51.002;4.356;2023-06-24T05:17:35;5.20;;;3.67;;
22034;SDS011;11181;51.002;4.356;2023-06-24T05:20:05;4.43;;;3.53;;
22034;SDS011;11181;51.002;4.356;2023-06-24T05:22:33;5.60;;;3.70;;
22034;SDS011;11181;51.002;4.356;2023-06-24T05:25:00;5.13;;;3.90;;
22034;SDS011;11181;51.002;4.356;2023-06-24T05:27:27;6.83;;;4.37;;
22034;SDS011;11181;51.002;4.356;2023-06-24T05:29:55;5.13;;;3.93;;
22034;SDS011;11181;51.002;4.356;2023-06-24T05:32:22;4.53;;;4.00;;
22034;SDS011;11181;51.002;4.356;2023-06-24T05:34:49;6.93;;;3.80;;
22034;SDS011;11181;51.002;4.356;2023-06-24T05:37:16;5.07;;;4.23;;
22034;SDS011;11181;51.002;4.356;2023-06-24T05:39:43;8.57;;;3.67;;
22034;SDS011;11181;51.002;4.356;2023-06-24T05:42:10;5.63;;;3.93;;
22034;SDS011;11181;51.002;4.356;2023-06-24T05:44:37;4.23;;;3.53;;
22034;SDS011;11181;51.002;4.356;2023-06-24T05:47:05;5.93;;;3.60;;
22034;SDS011;11181;51.002;4.356;2023-06-24T05:49:32;4.63;;;3.47;;
22034;SDS011;11181;51.002;4.356;2023-06-24T05:51:59;5.67;;;3.33;;
22034;SDS011;11181;51.002;4.356;2023-06-24T05:54:26;4.57;;;3.20;;
22034;SDS011;11181;51.002;4.356;2023-06-24T05:56:53;4.90;;;3.80;;
22034;SDS011;11181;51.002;4.356;2023-06-24T05:59:20;7.80;;;3.57;;
22034;SDS011;11181;51.002;4.356;2023-06-24T06:01:46;5.13;;;3.70;;
22034;SDS011;11181;51.002;4.356;2023-06-24T06:04:15;4.87;;;3.90;;
22034;SDS011;11181;51.002;4.356;2023-06-24T06:06:44;5.10;;;3.70;;
22034;SDS011;11181;51.002;4.356;2023-06-24T06:09:11;4.70;;;3.67;;
22034;SDS011;11181;51.002;4.356;2023-06-24T06:11:38;5.00;;;3.40;;
22034;SDS011;11181;51.002;4.356;2023-06-24T06:14:05;4.90;;;3.40;;
22034;SDS011;11181;51.002;4.356;2023-06-24T06:16:31;4.47;;;3.30;;
22034;SDS011;11181;51.002;4.356;2023-06-24T06:18:58;6.17;;;4.37;;
22034;SDS011;11181;51.002;4.356;2023-06-24T06:21:27;7.47;;;4.27;;
22034;SDS011;11181;51.002;4.356;2023-06-24T06:23:54;6.43;;;3.67;;
22034;SDS011;11181;51.002;4.356;2023-06-24T06:26:21;4.50;;;3.30;;
22034;SDS011;11181;51.002;4.356;2023-06-24T06:28:48;4.33;;;3.40;;
22034;SDS011;11181;51.002;4.356;2023-06-24T06:31:15;7.67;;;4.03;;
22034;SDS011;11181;51.002;4.356;2023-06-24T06:33:42;6.77;;;4.10;;
22034;SDS011;11181;51.002;4.356;2023-06-24T06:36:09;6.10;;;4.00;;
22034;SDS011;11181;51.002;4.356;2023-06-24T06:38:37;6.03;;;4.10;;
22034;SDS011;11181;51.002;4.356;2023-06-24T06:41:04;6.20;;;4.10;;
22034;SDS011;11181;51.002;4.356;2023-06-24T06:43:31;5.93;;;3.80;;
22034;SDS011;11181;51.002;4.356;2023-06-24T06:45:59;5.63;;;3.70;;
22034;SDS011;11181;51.002;4.356;2023-06-24T06:48:26;5.17;;;4.63;;
22034;SDS011;11181;51.002;4.356;2023-06-24T06:50:53;5.87;;;4.53;;
22034;SDS011;11181;51.002;4.356;2023-06-24T06:53:20;7.03;;;4.40;;
22034;SDS011;11181;51.002;4.356;2023-06-24T06:55:48;9.37;;;5.33;;
22034;SDS011;11181;51.002;4.356;2023-06-24T06:58:15;4.63;;;3.97;;
22034;SDS011;11181;51.002;4.356;2023-06-24T07:00:42;11.40;;;4.63;;
22034;SDS011;11181;51.002;4.356;2023-06-24T07:03:09;5.17;;;4.30;;
22034;SDS011;11181;51.002;4.356;2023-06-24T07:05:35;5.33;;;3.90;;
22034;SDS011;11181;51.002;4.356;2023-06-24T07:08:03;5.23;;;4.33;;
22034;SDS011;11181;51.002;4.356;2023-06-24T07:10:31;5.47;;;4.37;;
22034;SDS011;11181;51.002;4.356;2023-06-24T07:13:00;6.37;;;3.90;;
22034;SDS011;11181;51.002;4.356;2023-06-24T07:15:27;6.53;;;5.30;;
22034;SDS011;11181;51.002;4.356;2023-06-24T07:17:54;4.00;;;3.40;;
22034;SDS011;11181;51.002;4.356;2023-06-24T07:20:22;6.87;;;4.10;;
22034;SDS011;11181;51.002;4.356;2023-06-24T07:22:49;6.53;;;3.90;;
22034;SDS011;11181;51.002;4.356;2023-06-24T07:25:16;7.23;;;4.50;;
22034;SDS011;11181;51.002;4.356;2023-06-24T07:27:42;5.43;;;3.27;;
22034;SDS011;11181;51.002;4.356;2023-06-24T07:30:11;4.17;;;3.37;;
22034;SDS011;11181;51.002;4.356;2023-06-24T07:32:38;5.50;;;3.78;;
22034;SDS011;11181;51.002;4.356;2023-06-24T07:35:05;4.35;;;3.05;;
22034;SDS011;11181;51.002;4.356;2023-06-24T07:37:34;5.70;;;3.47;;
22034;SDS011;11181;51.002;4.356;2023-06-24T07:40:01;6.65;;;3.00;;
22034;SDS011;11181;51.002;4.356;2023-06-24T07:42:29;6.53;;;3.38;;
22034;SDS011;11181;51.002;4.356;2023-06-24T07:44:56;4.95;;;3.13;;
22034;SDS011;11181;51.002;4.356;2023-06-24T07:47:24;5.70;;;3.67;;
22034;SDS011;11181;51.002;4.356;2023-06-24T07:49:51;5.93;;;3.30;;
22034;SDS011;11181;51.002;4.356;2023-06-24T07:52:18;3.75;;;2.97;;
22034;SDS011;11181;51.002;4.356;2023-06-24T07:54:45;3.45;;;2.53;;
22034;SDS011;11181;51.002;4.356;2023-06-24T07:57:13;3.65;;;3.00;;
22034;SDS011;11181;51.002;4.356;2023-06-24T07:59:39;3.38;;;2.85;;
22034;SDS011;11181;51.002;4.356;2023-06-24T08:02:06;6.30;;;3.55;;
22034;SDS011;11181;51.002;4.356;2023-06-24T08:04:35;5.20;;;3.58;;
22034;SDS011;11181;51.002;4.356;2023-06-24T08:07:02;5.38;;;3.05;;
22034;SDS011;11181;51.002;4.356;2023-06-24T08:09:30;6.10;;;3.47;;
22034;SDS011;11181;51.002;4.356;2023-06-24T08:11:56;3.97;;;3.13;;
22034;SDS011;11181;51.002;4.356;2023-06-24T08:14:23;6.53;;;3.13;;
22034;SDS011;11181;51.002;4.356;2023-06-24T08:16:50;3.83;;;3.10;;
22034;SDS011;11181;51.002;4.356;2023-06-24T08:19:17;5.28;;;3.00;;
22034;SDS011;11181;51.002;4.356;2023-06-24T08:21:45;5.05;;;2.35;;
22034;SDS011;11181;51.002;4.356;2023-06-24T08:24:12;3.38;;;2.40;;
22034;SDS011;11181;51.002;4.356;2023-06-24T08:26:39;3.40;;;2.40;;
22034;SDS011;11181;51.002;4.356;2023-06-24T08:29:06;3.28;;;2.97;;
22034;SDS011;11181;51.002;4.356;2023-06-24T08:31:33;3.75;;;2.33;;
22034;SDS011;11181;51.002;4.356;2023-06-24T08:34:00;3.78;;;2.70;;
22034;SDS011;11181;51.002;4.356;2023-06-24T08:36:27;4.18;;;2.70;;
22034;SDS011;11181;51.002;4.356;2023-06-24T08:38:56;5.20;;;3.35;;
22034;SDS011;11181;51.002;4.356;2023-06-24T08:41:24;3.58;;;2.70;;
22034;SDS011;11181;51.002;4.356;2023-06-24T08:43:51;4.07;;;2.53;;
22034;SDS011;11181;51.002;4.356;2023-06-24T08:46:19;2.38;;;2.10;;
22034;SDS011;11181;51.002;4.356;2023-06-24T08:48:47;3.40;;;2.35;;
22034;SDS011;11181;51.002;4.356;2023-06-24T08:51:15;5.88;;;2.50;;
22034;SDS011;11181;51.002;4.356;2023-06-24T08:53:44;2.47;;;2.22;;
22034;SDS011;11181;51.002;4.356;2023-06-24T08:56:15;4.55;;;2.40;;
22034;SDS011;11181;51.002;4.356;2023-06-24T08:58:42;2.50;;;2.30;;
22034;SDS011;11181;51.002;4.356;2023-06-24T09:01:10;2.63;;;2.00;;
22034;SDS011;11181;51.002;4.356;2023-06-24T09:03:37;2.85;;;2.33;;
22034;SDS011;11181;51.002;4.356;2023-06-24T09:06:04;2.50;;;1.75;;
22034;SDS011;11181;51.002;4.356;2023-06-24T09:08:31;2.20;;;2.00;;
22034;SDS011;11181;51.002;4.356;2023-06-24T09:11:00;2.20;;;2.00;;
22034;SDS011;11181;51.002;4.356;2023-06-24T09:13:34;4.15;;;2.50;;
22034;SDS011;11181;51.002;4.356;2023-06-24T09:16:11;3.13;;;2.13;;
22034;SDS011;11181;51.002;4.356;2023-06-24T09:18:39;2.70;;;2.30;;
22034;SDS011;11181;51.002;4.356;2023-06-24T09:21:10;3.42;;;2.30;;
22034;SDS011;11181;51.002;4.356;2023-06-24T09:23:37;3.25;;;1.90;;
22034;SDS011;11181;51.002;4.356;2023-06-24T09:26:05;2.00;;;1.60;;
22034;SDS011;11181;51.002;4.356;2023-06-24T09:28:37;2.63;;;1.70;;
22034;SDS011;11181;51.002;4.356;2023-06-24T09:31:05;1.70;;;1.60;;
22034;SDS011;11181;51.002;4.356;2023-06-24T09:33:32;2.05;;;1.67;;
22034;SDS011;11181;51.002;4.356;2023-06-24T09:36:01;2.50;;;1.50;;
22034;SDS011;11181;51.002;4.356;2023-06-24T09:38:32;2.67;;;1.70;;
22034;SDS011;11181;51.002;4.356;2023-06-24T09:41:01;1.70;;;1.52;;
22034;SDS011;11181;51.002;4.356;2023-06-24T09:43:30;2.63;;;1.33;;
22034;SDS011;11181;51.002;4.356;2023-06-24T09:45:58;3.67;;;1.65;;
22034;SDS011;11181;51.002;4.356;2023-06-24T09:48:27;2.70;;;1.80;;
22034;SDS011;11181;51.002;4.356;2023-06-24T09:50:54;3.03;;;1.67;;
22034;SDS011;11181;51.002;4.356;2023-06-24T09:53:23;2.05;;;1.80;;
22034;SDS011;11181;51.002;4.356;2023-06-24T09:55:51;1.30;;;1.20;;
22034;SDS011;11181;51.002;4.356;2023-06-24T09:58:19;1.85;;;1.60;;
22034;SDS011;11181;51.002;4.356;2023-06-24T10:00:47;2.15;;;1.80;;
22034;SDS011;11181;51.002;4.356;2023-06-24T10:03:16;3.50;;;1.80;;
22034;SDS011;11181;51.002;4.356;2023-06-24T10:05:44;1.80;;;1.60;;
22034;SDS011;11181;51.002;4.356;2023-06-24T10:08:13;1.80;;;1.50;;
22034;SDS011;11181;51.002;4.356;2023-06-24T10:10:40;1.70;;;1.50;;
22034;SDS011;11181;51.002;4.356;2023-06-24T10:13:07;2.60;;;1.67;;
22034;SDS011;11181;51.002;4.356;2023-06-24T10:15:34;5.45;;;2.13;;
22034;SDS011;11181;51.002;4.356;2023-06-24T10:18:02;2.15;;;1.75;;
22034;SDS011;11181;51.002;4.356;2023-06-24T10:20:30;3.65;;;1.60;;
22034;SDS011;11181;51.002;4.356;2023-06-24T10:23:05;2.60;;;1.50;;
22034;SDS011;11181;51.002;4.356;2023-06-24T10:25:35;2.67;;;1.90;;
22034;SDS011;11181;51.002;4.356;2023-06-24T10:28:03;1.40;;;1.30;;
22034;SDS011;11181;51.002;4.356;2023-06-24T10:30:30;3.97;;;1.85;;
22034;SDS011;11181;51.002;4.356;2023-06-24T10:32:58;2.03;;;1.63;;
22034;SDS011;11181;51.002;4.356;2023-06-24T10:35:25;1.92;;;1.60;;
22034;SDS011;11181;51.002;4.356;2023-06-24T10:37:57;3.17;;;1.55;;
22034;SDS011;11181;51.002;4.356;2023-06-24T10:40:34;2.20;;;1.40;;
22034;SDS011;11181;51.002;4.356;2023-06-24T10:43:03;1.80;;;1.65;;
22034;SDS011;11181;51.002;4.356;2023-06-24T10:45:56;3.90;;;2.00;;
22034;SDS011;11181;51.002;4.356;2023-06-24T10:48:25;1.45;;;1.35;;
22034;SDS011;11181;51.002;4.356;2023-06-24T10:50:52;1.77;;;1.25;;
22034;SDS011;11181;51.002;4.356;2023-06-24T10:53:21;1.85;;;1.33;;
22034;SDS011;11181;51.002;4.356;2023-06-24T10:55:48;2.88;;;1.70;;
22034;SDS011;11181;51.002;4.356;2023-06-24T10:58:15;2.00;;;1.80;;
22034;SDS011;11181;51.002;4.356;2023-06-24T11:00:42;1.85;;;1.60;;
22034;SDS011;11181;51.002;4.356;2023-06-24T11:03:11;1.77;;;1.40;;
22034;SDS011;11181;51.002;4.356;2023-06-24T11:05:39;1.70;;;1.52;;
22034;SDS011;11181;51.002;4.356;2023-06-24T11:08:07;1.15;;;1.02;;
22034;SDS011;11181;51.002;4.356;2023-06-24T11:10:42;2.72;;;1.77;;
22034;SDS011;11181;51.002;4.356;2023-06-24T11:13:10;1.92;;;1.58;;
22034;SDS011;11181;51.002;4.356;2023-06-24T11:15:38;2.33;;;1.52;;
22034;SDS011;11181;51.002;4.356;2023-06-24T11:18:07;1.45;;;1.35;;
22034;SDS011;11181;51.002;4.356;2023-06-24T11:20:35;2.17;;;1.80;;
22034;SDS011;11181;51.002;4.356;2023-06-24T11:23:06;2.83;;;1.60;;
22034;SDS011;11181;51.002;4.356;2023-06-24T11:25:38;2.72;;;1.80;;
22034;SDS011;11181;51.002;4.356;2023-06-24T11:28:13;2.70;;;1.58;;
22034;SDS011;11181;51.002;4.356;2023-06-24T11:30:40;2.22;;;1.40;;
22034;SDS011;11181;51.002;4.356;2023-06-24T11:33:07;2.00;;;1.60;;
22034;SDS011;11181;51.002;4.356;2023-06-24T11:35:34;1.80;;;1.35;;
22034;SDS011;11181;51.002;4.356;2023-06-24T11:38:02;2.75;;;1.70;;
22034;SDS011;11181;51.002;4.356;2023-06-24T11:40:32;1.73;;;1.38;;
22034;SDS011;11181;51.002;4.356;2023-06-24T11:43:00;2.88;;;1.63;;
22034;SDS011;11181;51.002;4.356;2023-06-24T11:45:28;1.90;;;1.70;;
22034;SDS011;11181;51.002;4.356;2023-06-24T11:48:01;1.40;;;1.30;;
22034;SDS011;11181;51.002;4.356;2023-06-24T11:50:33;1.90;;;1.23;;
22034;SDS011;11181;51.002;4.356;2023-06-24T11:53:02;2.85;;;1.65;;
22034;SDS011;11181;51.002;4.356;2023-06-24T11:55:30;1.85;;;1.50;;
22034;SDS011;11181;51.002;4.356;2023-06-24T11:57:58;1.70;;;1.60;;
22034;SDS011;11181;51.002;4.356;2023-06-24T12:00:27;2.53;;;1.63;;
22034;SDS011;11181;51.002;4.356;2023-06-24T12:02:56;3.00;;;2.03;;
22034;SDS011;11181;51.002;4.356;2023-06-24T12:05:25;2.97;;;1.73;;
22034;SDS011;11181;51.002;4.356;2023-06-24T12:07:56;1.55;;;1.40;;
22034;SDS011;11181;51.002;4.356;2023-06-24T12:10:24;2.63;;;2.05;;
22034;SDS011;11181;51.002;4.356;2023-06-24T12:12:51;1.70;;;1.40;;
22034;SDS011;11181;51.002;4.356;2023-06-24T12:15:18;2.38;;;1.70;;
22034;SDS011;11181;51.002;4.356;2023-06-24T12:17:47;2.42;;;1.63;;
22034;SDS011;11181;51.002;4.356;2023-06-24T12:20:14;1.85;;;1.70;;
22034;SDS011;11181;51.002;4.356;2023-06-24T12:22:41;3.88;;;1.40;;
22034;SDS011;11181;51.002;4.356;2023-06-24T12:25:08;3.25;;;1.95;;
22034;SDS011;11181;51.002;4.356;2023-06-24T12:27:35;2.53;;;1.70;;
22034;SDS011;11181;51.002;4.356;2023-06-24T12:30:05;2.35;;;1.67;;
22034;SDS011;11181;51.002;4.356;2023-06-24T12:32:33;1.58;;;1.48;;
22034;SDS011;11181;51.002;4.356;2023-06-24T12:35:01;3.28;;;2.22;;
22034;SDS011;11181;51.002;4.356;2023-06-24T12:37:29;2.50;;;2.15;;
22034;SDS011;11181;51.002;4.356;2023-06-24T12:39:57;2.15;;;1.48;;
22034;SDS011;11181;51.002;4.356;2023-06-24T12:42:24;2.35;;;1.60;;
22034;SDS011;11181;51.002;4.356;2023-06-24T12:44:52;2.58;;;1.88;;
22034;SDS011;11181;51.002;4.356;2023-06-24T12:47:19;3.63;;;1.50;;
22034;SDS011;11181;51.002;4.356;2023-06-24T12:49:46;2.45;;;1.40;;
22034;SDS011;11181;51.002;4.356;2023-06-24T12:52:15;2.13;;;1.80;;
22034;SDS011;11181;51.002;4.356;2023-06-24T12:54:42;1.80;;;1.48;;
22034;SDS011;11181;51.002;4.356;2023-06-24T12:57:09;2.80;;;1.90;;
22034;SDS011;11181;51.002;4.356;2023-06-24T12:59:36;1.60;;;1.33;;
22034;SDS011;11181;51.002;4.356;2023-06-24T13:02:03;2.75;;;1.63;;
22034;SDS011;11181;51.002;4.356;2023-06-24T13:04:30;2.75;;;1.60;;
22034;SDS011;11181;51.002;4.356;2023-06-24T13:06:57;1.73;;;1.40;;
22034;SDS011;11181;51.002;4.356;2023-06-24T13:09:25;1.40;;;1.30;;
22034;SDS011;11181;51.002;4.356;2023-06-24T13:11:52;1.40;;;1.30;;
22034;SDS011;11181;51.002;4.356;2023-06-24T13:14:19;1.63;;;1.50;;
22034;SDS011;11181;51.002;4.356;2023-06-24T13:16:46;1.52;;;1.42;;
22034;SDS011;11181;51.002;4.356;2023-06-24T13:19:13;2.00;;;1.70;;
22034;SDS011;11181;51.002;4.356;2023-06-24T13:21:40;2.03;;;1.35;;
22034;SDS011;11181;51.002;4.356;2023-06-24T13:24:07;1.80;;;1.40;;
22034;SDS011;11181;51.002;4.356;2023-06-24T13:26:35;2.55;;;1.83;;
22034;SDS011;11181;51.002;4.356;2023-06-24T13:29:02;1.48;;;1.38;;
22034;SDS011;11181;51.002;4.356;2023-06-24T13:31:29;2.13;;;1.40;;
22034;SDS011;11181;51.002;4.356;2023-06-24T13:33:56;2.35;;;1.77;;
22034;SDS011;11181;51.002;4.356;2023-06-24T13:36:30;1.23;;;1.17;;
22034;SDS011;11181;51.002;4.356;2023-06-24T13:39:00;2.33;;;1.58;;
22034;SDS011;11181;51.002;4.356;2023-06-24T13:41:27;1.35;;;1.25;;
22034;SDS011;11181;51.002;4.356;2023-06-24T13:43:58;1.95;;;1.35;;
22034;SDS011;11181;51.002;4.356;2023-06-24T13:46:26;1.67;;;1.30;;
22034;SDS011;11181;51.002;4.356;2023-06-24T13:48:53;2.20;;;1.42;;
22034;SDS011;11181;51.002;4.356;2023-06-24T13:51:20;2.38;;;1.20;;
22034;SDS011;11181;51.002;4.356;2023-06-24T13:53:47;1.73;;;1.40;;
22034;SDS011;11181;51.002;4.356;2023-06-24T13:56:15;1.85;;;1.40;;
22034;SDS011;11181;51.002;4.356;2023-06-24T13:58:42;1.30;;;1.20;;
22034;SDS011;11181;51.002;4.356;2023-06-24T14:01:11;2.28;;;1.20;;
22034;SDS011;11181;51.002;4.356;2023-06-24T14:03:38;1.75;;;1.65;;
22034;SDS011;11181;51.002;4.356;2023-06-24T14:06:05;1.45;;;1.27;;
22034;SDS011;11181;51.002;4.356;2023-06-24T14:08:32;1.60;;;1.50;;
22034;SDS011;11181;51.002;4.356;2023-06-24T14:10:59;1.88;;;1.50;;
22034;SDS011;11181;51.002;4.356;2023-06-24T14:13:27;3.08;;;1.40;;
22034;SDS011;11181;51.002;4.356;2023-06-24T14:15:56;1.90;;;1.70;;
22034;SDS011;11181;51.002;4.356;2023-06-24T14:18:24;1.48;;;1.27;;
22034;SDS011;11181;51.002;4.356;2023-06-24T14:20:51;2.22;;;1.50;;
22034;SDS011;11181;51.002;4.356;2023-06-24T14:23:18;1.63;;;1.50;;
22034;SDS011;11181;51.002;4.356;2023-06-24T14:25:45;1.38;;;1.27;;
22034;SDS011;11181;51.002;4.356;2023-06-24T14:28:12;1.38;;;1.27;;
22034;SDS011;11181;51.002;4.356;2023-06-24T14:30:39;1.60;;;1.50;;
22034;SDS011;11181;51.002;4.356;2023-06-24T14:33:07;1.95;;;1.30;;
22034;SDS011;11181;51.002;4.356;2023-06-24T14:35:35;1.40;;;1.27;;
22034;SDS011;11181;51.002;4.356;2023-06-24T14:38:02;1.75;;;1.40;;
22034;SDS011;11181;51.002;4.356;2023-06-24T14:40:29;1.55;;;1.40;;
22034;SDS011;11181;51.002;4.356;2023-06-24T14:42:56;2.20;;;1.45;;
22034;SDS011;11181;51.002;4.356;2023-06-24T14:45:23;1.70;;;1.20;;
22034;SDS011;11181;51.002;4.356;2023-06-24T14:47:49;1.30;;;1.20;;
22034;SDS011;11181;51.002;4.356;2023-06-24T14:50:16;2.30;;;1.20;;
22034;SDS011;11181;51.002;4.356;2023-06-24T14:52:45;1.73;;;1.30;;
22034;SDS011;11181;51.002;4.356;2023-06-24T14:55:12;4.35;;;2.15;;
22034;SDS011;11181;51.002;4.356;2023-06-24T14:57:39;2.20;;;1.42;;
22034;SDS011;11181;51.002;4.356;2023-06-24T15:00:06;2.45;;;1.80;;
22034;SDS011;11181;51.002;4.356;2023-06-24T15:02:34;2.03;;;1.20;;